Etusivu
METAR-TAF:

METAR-TAF

Lentoasemat :

Hobbs, New Mexico, Yhdysvallat

Leveyspiiri: 32-41N, Pituuspiiri: 103-13W, korkeus merenpinnasta: 1115 m

Tämänhetkinen sää

Tämä raportti tehtiin 17 minuuttia sitten, kello 09.35 UTC
Tuuli 6 kn lounaasta
Lämpötila 10°C
Kosteus 50%
Ilmanpaine 1007 hPa
Näkyvyys: 16.1 km
selkeää

METAR: KHOB 150935Z AUTO 23006KT 10SM CLR 10/00 A2973 RMK AO2

Aika: 02:52 (09:52 UTC)

Sääennuste

Tämä raportti tehtiin 4 tuntia ja 23 minuuttia sitten, kello 05.29 UTC
Ennuste voimassa 15. päivästä klo 06 UTC - 16. päivään klo 06 UTC
Tuuli 11 kn lounaasta
Näkyvyys: 10 km
Muutamia pilviä 25000 ft:n korkeudessa
From 15. päivästä klo 1600 UTC
Tuuli 15 kn lännestä/lounaasta puuskistuen 25 kn:hen
Näkyvyys: 10 km
Hajanaisia pilviä 25000 ft:n korkeudessa

TAF: KHOB 150529Z 1506/1606 23011KT P6SM FEW250 FM151600 25015G25KT P6SM SCT250

Säähavainnot ja -ennusteet yli 4000 lentoasemalta (METAR- ja TAF-raportit).

Käytössä olevat sääasemat on merkitty karttaan keltaisilla ja punaisilla pisteillä.

Aseta hiiri pisteen päälle nähdäksesi sääaseman nimen.

Klikkaa sitten nähdäksesi säähavainnot ja -ennusteet.

Kartan vaihtaminen: klikkaa mustalla rastilla varustettuja vihreitä pisteitä, niin voit zoomata sisään; viivalla varustettua vihreää pistettä, niin voit zoomata ulos tai vihreitä nuolia, niin pääset viereisille kartoille.


METAR-TAF: